BIKF/KEF METAR and TAF weather

Enter ICAO airport designator
Station Type Date Time Source
BIKF METAR 2022/12/10 02:00 UTC NOAA

BIKF 100200Z 02010KT CAVOK M00/M05 Q1035


Station Type Date Time Source
BIKF Decoded METAR 2022/12/10 02:00 UTC NOAA

Keflavikurflugvollur, Iceland (BIKF) 63-58N 022-36W 54M
Dec 09, 2022 - 09:00 PM EST / 2022.12.10 0200 UTC
Wind: from the NNE (020 degrees) at 12 MPH (10 KT):0
Visibility: greater than 7 mile(s):0
Temperature: 32 F (0 C)
Windchill: 23 F (-5 C):1
Dew Point: 23 F (-5 C)
Relative Humidity: 69%
Pressure (altimeter): 30.56 in. Hg (1035 hPa)
ob: BIKF 100200Z 02010KT CAVOK M00/M05 Q1035
cycle: 2

Station Type Date Time Source
BIKF TAF 2022/12/10 03:40 UTC NOAA

TAF BIKF 100131Z 1003/1103 04008KT CAVOK TXM00/1103Z TNM04/1017Z
BECMG 1023/1101 02018KT

Example: see airport list